sensor_id;sensor_type;location;lat;lon;timestamp;P1;durP1;ratioP1;P2;durP2;ratioP2
1380;SDS011;684;48.342;10.096;2023-03-04T00:00:54;71.80;;;41.10;;
1380;SDS011;684;48.342;10.096;2023-03-04T00:03:20;70.57;;;40.40;;
1380;SDS011;684;48.342;10.096;2023-03-04T00:05:47;71.57;;;41.40;;
1380;SDS011;684;48.342;10.096;2023-03-04T00:08:14;81.20;;;45.17;;
1380;SDS011;684;48.342;10.096;2023-03-04T00:10:40;71.33;;;41.73;;
1380;SDS011;684;48.342;10.096;2023-03-04T00:13:09;80.03;;;44.40;;
1380;SDS011;684;48.342;10.096;2023-03-04T00:15:35;76.13;;;42.67;;
1380;SDS011;684;48.342;10.096;2023-03-04T00:18:02;77.67;;;45.60;;
1380;SDS011;684;48.342;10.096;2023-03-04T00:20:29;73.57;;;44.53;;
1380;SDS011;684;48.342;10.096;2023-03-04T00:22:56;69.87;;;44.13;;
1380;SDS011;684;48.342;10.096;2023-03-04T00:25:22;80.40;;;46.20;;
1380;SDS011;684;48.342;10.096;2023-03-04T00:27:49;76.33;;;44.40;;
1380;SDS011;684;48.342;10.096;2023-03-04T00:30:17;85.57;;;45.50;;
1380;SDS011;684;48.342;10.096;2023-03-04T00:32:44;80.03;;;43.30;;
1380;SDS011;684;48.342;10.096;2023-03-04T00:35:11;69.77;;;42.37;;
1380;SDS011;684;48.342;10.096;2023-03-04T00:37:37;71.13;;;42.67;;
1380;SDS011;684;48.342;10.096;2023-03-04T00:40:05;74.17;;;44.17;;
1380;SDS011;684;48.342;10.096;2023-03-04T00:42:32;77.33;;;43.40;;
1380;SDS011;684;48.342;10.096;2023-03-04T00:44:59;74.27;;;44.47;;
1380;SDS011;684;48.342;10.096;2023-03-04T00:47:27;68.07;;;41.23;;
1380;SDS011;684;48.342;10.096;2023-03-04T00:49:54;69.93;;;42.00;;
1380;SDS011;684;48.342;10.096;2023-03-04T00:52:20;78.63;;;45.67;;
1380;SDS011;684;48.342;10.096;2023-03-04T00:54:47;82.90;;;44.23;;
1380;SDS011;684;48.342;10.096;2023-03-04T00:57:14;73.53;;;41.60;;
1380;SDS011;684;48.342;10.096;2023-03-04T00:59:40;73.37;;;42.10;;
1380;SDS011;684;48.342;10.096;2023-03-04T01:02:08;67.10;;;42.00;;
1380;SDS011;684;48.342;10.096;2023-03-04T01:04:36;71.40;;;42.40;;
1380;SDS011;684;48.342;10.096;2023-03-04T01:07:03;83.10;;;43.37;;
1380;SDS011;684;48.342;10.096;2023-03-04T01:09:30;71.40;;;39.70;;
1380;SDS011;684;48.342;10.096;2023-03-04T01:11:57;66.93;;;39.67;;
1380;SDS011;684;48.342;10.096;2023-03-04T01:14:24;66.43;;;39.67;;
1380;SDS011;684;48.342;10.096;2023-03-04T01:16:50;69.60;;;39.70;;
1380;SDS011;684;48.342;10.096;2023-03-04T01:19:17;77.43;;;43.07;;
1380;SDS011;684;48.342;10.096;2023-03-04T01:21:45;80.03;;;42.03;;
1380;SDS011;684;48.342;10.096;2023-03-04T01:24:12;74.90;;;42.17;;
1380;SDS011;684;48.342;10.096;2023-03-04T01:26:39;71.30;;;42.47;;
1380;SDS011;684;48.342;10.096;2023-03-04T01:29:06;66.20;;;39.77;;
1380;SDS011;684;48.342;10.096;2023-03-04T01:31:32;68.73;;;40.00;;
1380;SDS011;684;48.342;10.096;2023-03-04T01:33:59;72.53;;;41.73;;
1380;SDS011;684;48.342;10.096;2023-03-04T01:36:26;75.73;;;42.37;;
1380;SDS011;684;48.342;10.096;2023-03-04T01:38:54;74.10;;;39.63;;
1380;SDS011;684;48.342;10.096;2023-03-04T01:41:22;68.03;;;43.20;;
1380;SDS011;684;48.342;10.096;2023-03-04T01:43:50;76.57;;;43.50;;
1380;SDS011;684;48.342;10.096;2023-03-04T01:46:18;75.43;;;43.10;;
1380;SDS011;684;48.342;10.096;2023-03-04T01:48:45;74.77;;;42.00;;
1380;SDS011;684;48.342;10.096;2023-03-04T01:51:13;73.97;;;40.73;;
1380;SDS011;684;48.342;10.096;2023-03-04T01:53:41;73.17;;;39.67;;
1380;SDS011;684;48.342;10.096;2023-03-04T01:56:15;70.53;;;40.80;;
1380;SDS011;684;48.342;10.096;2023-03-04T01:58:46;73.13;;;43.80;;
1380;SDS011;684;48.342;10.096;2023-03-04T02:01:32;65.13;;;40.47;;
1380;SDS011;684;48.342;10.096;2023-03-04T02:03:59;70.57;;;40.37;;
1380;SDS011;684;48.342;10.096;2023-03-04T02:06:26;64.77;;;40.07;;
1380;SDS011;684;48.342;10.096;2023-03-04T02:08:53;70.20;;;42.30;;
1380;SDS011;684;48.342;10.096;2023-03-04T02:11:21;68.63;;;40.90;;
1380;SDS011;684;48.342;10.096;2023-03-04T02:13:48;68.00;;;42.17;;
1380;SDS011;684;48.342;10.096;2023-03-04T02:16:14;75.27;;;42.17;;
1380;SDS011;684;48.342;10.096;2023-03-04T02:18:41;68.20;;;40.10;;
1380;SDS011;684;48.342;10.096;2023-03-04T02:21:09;72.63;;;41.53;;
1380;SDS011;684;48.342;10.096;2023-03-04T02:23:43;71.00;;;41.67;;
1380;SDS011;684;48.342;10.096;2023-03-04T02:26:16;69.90;;;40.60;;
1380;SDS011;684;48.342;10.096;2023-03-04T02:28:44;69.20;;;39.10;;
1380;SDS011;684;48.342;10.096;2023-03-04T02:31:21;68.30;;;39.20;;
1380;SDS011;684;48.342;10.096;2023-03-04T02:33:50;69.53;;;39.27;;
1380;SDS011;684;48.342;10.096;2023-03-04T02:36:17;67.00;;;38.93;;
1380;SDS011;684;48.342;10.096;2023-03-04T02:38:44;71.33;;;40.50;;
1380;SDS011;684;48.342;10.096;2023-03-04T02:41:11;74.70;;;41.60;;
1380;SDS011;684;48.342;10.096;2023-03-04T02:43:42;72.03;;;42.10;;
1380;SDS011;684;48.342;10.096;2023-03-04T02:46:09;65.20;;;38.80;;
1380;SDS011;684;48.342;10.096;2023-03-04T02:48:38;56.77;;;36.30;;
1380;SDS011;684;48.342;10.096;2023-03-04T02:51:04;71.20;;;40.97;;
1380;SDS011;684;48.342;10.096;2023-03-04T02:53:31;70.57;;;41.30;;
1380;SDS011;684;48.342;10.096;2023-03-04T02:55:58;68.30;;;39.60;;
1380;SDS011;684;48.342;10.096;2023-03-04T02:58:25;67.57;;;38.13;;
1380;SDS011;684;48.342;10.096;2023-03-04T03:00:53;65.27;;;39.13;;
1380;SDS011;684;48.342;10.096;2023-03-04T03:03:20;64.47;;;39.47;;
1380;SDS011;684;48.342;10.096;2023-03-04T03:05:47;65.90;;;39.50;;
1380;SDS011;684;48.342;10.096;2023-03-04T03:08:14;71.67;;;40.90;;
1380;SDS011;684;48.342;10.096;2023-03-04T03:10:40;73.97;;;41.20;;
1380;SDS011;684;48.342;10.096;2023-03-04T03:13:07;71.67;;;38.17;;
1380;SDS011;684;48.342;10.096;2023-03-04T03:15:34;63.80;;;38.67;;
1380;SDS011;684;48.342;10.096;2023-03-04T03:18:07;66.73;;;38.70;;
1380;SDS011;684;48.342;10.096;2023-03-04T03:20:34;64.03;;;38.77;;
1380;SDS011;684;48.342;10.096;2023-03-04T03:23:01;65.37;;;38.90;;
1380;SDS011;684;48.342;10.096;2023-03-04T03:25:28;71.43;;;37.63;;
1380;SDS011;684;48.342;10.096;2023-03-04T03:27:55;60.90;;;35.50;;
1380;SDS011;684;48.342;10.096;2023-03-04T03:30:21;72.90;;;40.03;;
1380;SDS011;684;48.342;10.096;2023-03-04T03:32:48;75.27;;;43.23;;
1380;SDS011;684;48.342;10.096;2023-03-04T03:35:16;73.47;;;40.77;;
1380;SDS011;684;48.342;10.096;2023-03-04T03:37:43;65.23;;;38.23;;
1380;SDS011;684;48.342;10.096;2023-03-04T03:40:10;85.17;;;42.53;;
1380;SDS011;684;48.342;10.096;2023-03-04T03:42:38;74.00;;;39.87;;
1380;SDS011;684;48.342;10.096;2023-03-04T03:45:05;70.20;;;41.83;;
1380;SDS011;684;48.342;10.096;2023-03-04T03:47:32;74.23;;;41.20;;
1380;SDS011;684;48.342;10.096;2023-03-04T03:49:59;66.77;;;38.63;;
1380;SDS011;684;48.342;10.096;2023-03-04T03:52:27;68.83;;;38.20;;
1380;SDS011;684;48.342;10.096;2023-03-04T03:54:54;70.10;;;40.87;;
1380;SDS011;684;48.342;10.096;2023-03-04T03:57:21;74.87;;;39.33;;
1380;SDS011;684;48.342;10.096;2023-03-04T03:59:47;73.67;;;38.67;;
1380;SDS011;684;48.342;10.096;2023-03-04T04:02:14;70.70;;;38.83;;
1380;SDS011;684;48.342;10.096;2023-03-04T04:04:41;67.47;;;39.63;;
1380;SDS011;684;48.342;10.096;2023-03-04T04:07:08;72.77;;;40.93;;
1380;SDS011;684;48.342;10.096;2023-03-04T04:09:36;68.50;;;39.43;;
1380;SDS011;684;48.342;10.096;2023-03-04T04:12:03;77.87;;;39.27;;
1380;SDS011;684;48.342;10.096;2023-03-04T04:14:30;72.67;;;39.97;;
1380;SDS011;684;48.342;10.096;2023-03-04T04:16:57;74.87;;;38.73;;
1380;SDS011;684;48.342;10.096;2023-03-04T04:19:24;66.60;;;37.93;;
1380;SDS011;684;48.342;10.096;2023-03-04T04:21:51;73.23;;;42.23;;
1380;SDS011;684;48.342;10.096;2023-03-04T04:24:18;68.23;;;38.83;;
1380;SDS011;684;48.342;10.096;2023-03-04T04:26:46;72.73;;;38.37;;
1380;SDS011;684;48.342;10.096;2023-03-04T04:29:13;74.60;;;40.33;;
1380;SDS011;684;48.342;10.096;2023-03-04T04:31:40;72.13;;;38.40;;
1380;SDS011;684;48.342;10.096;2023-03-04T04:34:07;74.77;;;39.83;;
1380;SDS011;684;48.342;10.096;2023-03-04T04:36:34;79.37;;;40.67;;
1380;SDS011;684;48.342;10.096;2023-03-04T04:39:00;70.87;;;38.53;;
1380;SDS011;684;48.342;10.096;2023-03-04T04:41:28;65.27;;;38.20;;
1380;SDS011;684;48.342;10.096;2023-03-04T04:43:58;67.87;;;38.03;;
1380;SDS011;684;48.342;10.096;2023-03-04T04:46:24;71.00;;;39.23;;
1380;SDS011;684;48.342;10.096;2023-03-04T04:48:51;74.63;;;38.03;;
1380;SDS011;684;48.342;10.096;2023-03-04T04:51:18;72.37;;;38.13;;
1380;SDS011;684;48.342;10.096;2023-03-04T04:53:45;68.17;;;35.70;;
1380;SDS011;684;48.342;10.096;2023-03-04T04:56:12;69.47;;;38.10;;
1380;SDS011;684;48.342;10.096;2023-03-04T04:58:41;73.30;;;37.47;;
1380;SDS011;684;48.342;10.096;2023-03-04T05:01:09;70.83;;;37.53;;
1380;SDS011;684;48.342;10.096;2023-03-04T05:03:37;64.90;;;39.30;;
1380;SDS011;684;48.342;10.096;2023-03-04T05:06:05;66.50;;;36.97;;
1380;SDS011;684;48.342;10.096;2023-03-04T05:08:33;73.20;;;38.80;;
1380;SDS011;684;48.342;10.096;2023-03-04T05:11:00;72.63;;;39.33;;
1380;SDS011;684;48.342;10.096;2023-03-04T05:13:27;70.13;;;39.40;;
1380;SDS011;684;48.342;10.096;2023-03-04T05:15:55;75.00;;;38.70;;
1380;SDS011;684;48.342;10.096;2023-03-04T05:18:24;75.93;;;41.20;;
1380;SDS011;684;48.342;10.096;2023-03-04T05:20:52;70.10;;;38.70;;
1380;SDS011;684;48.342;10.096;2023-03-04T05:23:20;77.57;;;39.27;;
1380;SDS011;684;48.342;10.096;2023-03-04T05:25:47;75.43;;;39.83;;
1380;SDS011;684;48.342;10.096;2023-03-04T05:28:14;68.80;;;39.90;;
1380;SDS011;684;48.342;10.096;2023-03-04T05:30:42;75.00;;;39.37;;
1380;SDS011;684;48.342;10.096;2023-03-04T05:33:10;75.87;;;39.97;;
1380;SDS011;684;48.342;10.096;2023-03-04T05:35:39;72.37;;;39.97;;
1380;SDS011;684;48.342;10.096;2023-03-04T05:38:07;73.17;;;39.07;;
1380;SDS011;684;48.342;10.096;2023-03-04T05:40:35;77.23;;;40.83;;
1380;SDS011;684;48.342;10.096;2023-03-04T05:43:03;71.80;;;38.13;;
1380;SDS011;684;48.342;10.096;2023-03-04T05:45:30;70.40;;;40.03;;
1380;SDS011;684;48.342;10.096;2023-03-04T05:47:57;78.90;;;39.70;;
1380;SDS011;684;48.342;10.096;2023-03-04T05:50:23;72.13;;;36.33;;
1380;SDS011;684;48.342;10.096;2023-03-04T05:52:51;74.70;;;40.50;;
1380;SDS011;684;48.342;10.096;2023-03-04T05:55:18;70.07;;;38.57;;
1380;SDS011;684;48.342;10.096;2023-03-04T05:57:45;74.77;;;38.73;;
1380;SDS011;684;48.342;10.096;2023-03-04T06:00:13;67.13;;;36.47;;
1380;SDS011;684;48.342;10.096;2023-03-04T06:02:41;66.27;;;36.50;;
1380;SDS011;684;48.342;10.096;2023-03-04T06:05:08;71.03;;;38.57;;
1380;SDS011;684;48.342;10.096;2023-03-04T06:07:36;78.93;;;40.67;;
1380;SDS011;684;48.342;10.096;2023-03-04T06:10:05;78.30;;;39.70;;
1380;SDS011;684;48.342;10.096;2023-03-04T06:12:32;67.27;;;36.77;;
1380;SDS011;684;48.342;10.096;2023-03-04T06:14:59;75.63;;;40.40;;
1380;SDS011;684;48.342;10.096;2023-03-04T06:17:26;84.80;;;40.03;;
1380;SDS011;684;48.342;10.096;2023-03-04T06:19:53;63.00;;;35.07;;
1380;SDS011;684;48.342;10.096;2023-03-04T06:22:20;62.30;;;36.20;;
1380;SDS011;684;48.342;10.096;2023-03-04T06:24:47;67.93;;;37.53;;
1380;SDS011;684;48.342;10.096;2023-03-04T06:27:15;72.17;;;37.70;;
1380;SDS011;684;48.342;10.096;2023-03-04T06:29:41;68.80;;;34.90;;
1380;SDS011;684;48.342;10.096;2023-03-04T06:32:08;67.27;;;35.80;;
1380;SDS011;684;48.342;10.096;2023-03-04T06:34:35;67.50;;;38.97;;
1380;SDS011;684;48.342;10.096;2023-03-04T06:37:02;66.07;;;37.87;;
1380;SDS011;684;48.342;10.096;2023-03-04T06:39:28;62.40;;;35.67;;
1380;SDS011;684;48.342;10.096;2023-03-04T06:41:55;65.27;;;36.40;;
1380;SDS011;684;48.342;10.096;2023-03-04T06:44:23;63.00;;;37.00;;
1380;SDS011;684;48.342;10.096;2023-03-04T06:46:50;61.60;;;35.50;;
1380;SDS011;684;48.342;10.096;2023-03-04T06:49:17;66.07;;;34.80;;
1380;SDS011;684;48.342;10.096;2023-03-04T06:51:43;58.20;;;34.70;;
1380;SDS011;684;48.342;10.096;2023-03-04T06:54:10;58.17;;;36.03;;
1380;SDS011;684;48.342;10.096;2023-03-04T06:56:37;61.97;;;37.20;;
1380;SDS011;684;48.342;10.096;2023-03-04T06:59:03;59.53;;;33.30;;
1380;SDS011;684;48.342;10.096;2023-03-04T07:01:31;58.40;;;33.60;;
1380;SDS011;684;48.342;10.096;2023-03-04T07:03:59;59.43;;;37.60;;
1380;SDS011;684;48.342;10.096;2023-03-04T07:06:26;56.90;;;34.07;;
1380;SDS011;684;48.342;10.096;2023-03-04T07:08:54;52.87;;;32.37;;
1380;SDS011;684;48.342;10.096;2023-03-04T07:11:21;56.63;;;33.03;;
1380;SDS011;684;48.342;10.096;2023-03-04T07:13:48;54.67;;;35.70;;
1380;SDS011;684;48.342;10.096;2023-03-04T07:16:16;59.07;;;32.80;;
1380;SDS011;684;48.342;10.096;2023-03-04T07:18:46;52.20;;;33.33;;
1380;SDS011;684;48.342;10.096;2023-03-04T07:21:13;52.93;;;32.47;;
1380;SDS011;684;48.342;10.096;2023-03-04T07:23:40;50.43;;;32.70;;
1380;SDS011;684;48.342;10.096;2023-03-04T07:26:08;52.27;;;33.30;;
1380;SDS011;684;48.342;10.096;2023-03-04T07:28:35;54.87;;;34.30;;
1380;SDS011;684;48.342;10.096;2023-03-04T07:31:07;51.67;;;34.13;;
1380;SDS011;684;48.342;10.096;2023-03-04T07:33:35;51.63;;;34.30;;
1380;SDS011;684;48.342;10.096;2023-03-04T07:36:03;52.73;;;32.07;;
1380;SDS011;684;48.342;10.096;2023-03-04T07:38:30;48.93;;;33.80;;
1380;SDS011;684;48.342;10.096;2023-03-04T07:40:57;48.57;;;33.67;;
1380;SDS011;684;48.342;10.096;2023-03-04T07:43:25;53.67;;;35.40;;
1380;SDS011;684;48.342;10.096;2023-03-04T07:45:57;54.90;;;36.23;;
1380;SDS011;684;48.342;10.096;2023-03-04T07:48:25;52.47;;;34.60;;
1380;SDS011;684;48.342;10.096;2023-03-04T07:51:01;46.87;;;33.43;;
1380;SDS011;684;48.342;10.096;2023-03-04T07:53:34;54.80;;;36.77;;
1380;SDS011;684;48.342;10.096;2023-03-04T07:56:02;53.50;;;36.53;;
1380;SDS011;684;48.342;10.096;2023-03-04T07:58:29;50.77;;;36.40;;
1380;SDS011;684;48.342;10.096;2023-03-04T08:00:56;46.50;;;33.30;;
1380;SDS011;684;48.342;10.096;2023-03-04T08:03:24;51.40;;;34.83;;
1380;SDS011;684;48.342;10.096;2023-03-04T08:05:53;54.17;;;36.27;;
1380;SDS011;684;48.342;10.096;2023-03-04T08:08:21;48.80;;;35.50;;
1380;SDS011;684;48.342;10.096;2023-03-04T08:10:48;48.57;;;34.90;;
1380;SDS011;684;48.342;10.096;2023-03-04T08:13:15;50.40;;;35.80;;
1380;SDS011;684;48.342;10.096;2023-03-04T08:15:41;46.70;;;36.03;;
1380;SDS011;684;48.342;10.096;2023-03-04T08:18:08;46.37;;;36.30;;
1380;SDS011;684;48.342;10.096;2023-03-04T08:20:35;51.43;;;37.70;;
1380;SDS011;684;48.342;10.096;2023-03-04T08:23:01;47.00;;;35.70;;
1380;SDS011;684;48.342;10.096;2023-03-04T08:25:30;43.20;;;35.10;;
1380;SDS011;684;48.342;10.096;2023-03-04T08:27:56;38.87;;;33.80;;
1380;SDS011;684;48.342;10.096;2023-03-04T08:30:24;42.00;;;33.23;;
1380;SDS011;684;48.342;10.096;2023-03-04T08:32:51;43.13;;;34.53;;
1380;SDS011;684;48.342;10.096;2023-03-04T08:35:17;38.27;;;33.40;;
1380;SDS011;684;48.342;10.096;2023-03-04T08:37:44;42.00;;;32.60;;
1380;SDS011;684;48.342;10.096;2023-03-04T08:40:12;41.00;;;31.90;;
1380;SDS011;684;48.342;10.096;2023-03-04T08:42:41;35.37;;;30.30;;
1380;SDS011;684;48.342;10.096;2023-03-04T08:45:08;38.20;;;30.07;;
1380;SDS011;684;48.342;10.096;2023-03-04T08:47:36;34.00;;;26.03;;
1380;SDS011;684;48.342;10.096;2023-03-04T08:50:03;37.93;;;26.77;;
1380;SDS011;684;48.342;10.096;2023-03-04T08:52:32;28.57;;;23.27;;
1380;SDS011;684;48.342;10.096;2023-03-04T08:54:59;29.90;;;24.17;;
1380;SDS011;684;48.342;10.096;2023-03-04T08:57:26;28.93;;;23.23;;
1380;SDS011;684;48.342;10.096;2023-03-04T08:59:55;31.20;;;25.37;;
1380;SDS011;684;48.342;10.096;2023-03-04T09:02:22;35.40;;;30.50;;
1380;SDS011;684;48.342;10.096;2023-03-04T09:04:49;33.03;;;29.47;;
1380;SDS011;684;48.342;10.096;2023-03-04T09:07:18;30.47;;;27.20;;
1380;SDS011;684;48.342;10.096;2023-03-04T09:09:45;31.00;;;27.30;;
1380;SDS011;684;48.342;10.096;2023-03-04T09:12:12;33.60;;;27.90;;
1380;SDS011;684;48.342;10.096;2023-03-04T09:14:39;33.03;;;28.90;;
1380;SDS011;684;48.342;10.096;2023-03-04T09:17:08;30.43;;;27.17;;
1380;SDS011;684;48.342;10.096;2023-03-04T09:19:35;31.47;;;27.30;;
1380;SDS011;684;48.342;10.096;2023-03-04T09:22:02;31.20;;;27.80;;
1380;SDS011;684;48.342;10.096;2023-03-04T09:24:29;31.93;;;28.37;;
1380;SDS011;684;48.342;10.096;2023-03-04T09:26:56;31.10;;;27.13;;
1380;SDS011;684;48.342;10.096;2023-03-04T09:29:26;29.57;;;26.40;;
1380;SDS011;684;48.342;10.096;2023-03-04T09:31:54;33.90;;;27.97;;
1380;SDS011;684;48.342;10.096;2023-03-04T09:34:22;29.73;;;26.53;;
1380;SDS011;684;48.342;10.096;2023-03-04T09:36:49;30.73;;;27.53;;
1380;SDS011;684;48.342;10.096;2023-03-04T09:39:16;30.53;;;27.27;;
1380;SDS011;684;48.342;10.096;2023-03-04T09:41:44;31.70;;;28.23;;
1380;SDS011;684;48.342;10.096;2023-03-04T09:44:15;33.33;;;28.60;;
1380;SDS011;684;48.342;10.096;2023-03-04T09:46:47;28.83;;;25.73;;
1380;SDS011;684;48.342;10.096;2023-03-04T09:49:15;29.00;;;25.90;;
1380;SDS011;684;48.342;10.096;2023-03-04T09:51:47;28.77;;;25.60;;
1380;SDS011;684;48.342;10.096;2023-03-04T09:54:28;27.43;;;24.43;;
1380;SDS011;684;48.342;10.096;2023-03-04T09:57:14;29.90;;;24.90;;
1380;SDS011;684;48.342;10.096;2023-03-04T09:59:49;29.13;;;25.10;;
1380;SDS011;684;48.342;10.096;2023-03-04T10:02:26;31.10;;;25.50;;
1380;SDS011;684;48.342;10.096;2023-03-04T10:05:00;26.07;;;23.33;;
1380;SDS011;684;48.342;10.096;2023-03-04T10:07:32;27.07;;;24.10;;
1380;SDS011;684;48.342;10.096;2023-03-04T10:10:04;27.17;;;24.10;;
1380;SDS011;684;48.342;10.096;2023-03-04T10:12:38;29.63;;;25.60;;
1380;SDS011;684;48.342;10.096;2023-03-04T10:17:46;26.73;;;22.73;;
1380;SDS011;684;48.342;10.096;2023-03-04T10:20:18;27.90;;;24.97;;
1380;SDS011;684;48.342;10.096;2023-03-04T10:22:49;26.93;;;22.60;;
1380;SDS011;684;48.342;10.096;2023-03-04T10:25:19;31.87;;;25.10;;
1380;SDS011;684;48.342;10.096;2023-03-04T10:27:48;28.43;;;24.67;;
1380;SDS011;684;48.342;10.096;2023-03-04T10:30:20;29.27;;;24.60;;
1380;SDS011;684;48.342;10.096;2023-03-04T10:32:55;31.17;;;25.00;;
1380;SDS011;684;48.342;10.096;2023-03-04T10:35:24;30.60;;;26.37;;
1380;SDS011;684;48.342;10.096;2023-03-04T10:38:00;27.23;;;24.17;;
1380;SDS011;684;48.342;10.096;2023-03-04T10:40:28;28.87;;;25.30;;
1380;SDS011;684;48.342;10.096;2023-03-04T10:43:01;29.20;;;24.63;;
1380;SDS011;684;48.342;10.096;2023-03-04T10:45:32;29.70;;;24.27;;
1380;SDS011;684;48.342;10.096;2023-03-04T10:48:04;29.73;;;25.10;;
1380;SDS011;684;48.342;10.096;2023-03-04T10:50:31;29.30;;;24.57;;
1380;SDS011;684;48.342;10.096;2023-03-04T10:53:00;31.30;;;24.10;;
1380;SDS011;684;48.342;10.096;2023-03-04T10:55:27;28.77;;;24.00;;
1380;SDS011;684;48.342;10.096;2023-03-04T10:57:55;30.70;;;25.83;;
1380;SDS011;684;48.342;10.096;2023-03-04T11:00:28;31.30;;;25.00;;
1380;SDS011;684;48.342;10.096;2023-03-04T11:05:49;32.03;;;26.37;;
1380;SDS011;684;48.342;10.096;2023-03-04T11:08:21;38.20;;;27.53;;
1380;SDS011;684;48.342;10.096;2023-03-04T11:10:48;30.67;;;24.10;;
1380;SDS011;684;48.342;10.096;2023-03-04T11:13:18;33.40;;;27.23;;
1380;SDS011;684;48.342;10.096;2023-03-04T11:15:49;32.03;;;24.83;;
1380;SDS011;684;48.342;10.096;2023-03-04T11:18:18;31.37;;;24.60;;
1380;SDS011;684;48.342;10.096;2023-03-04T11:20:50;33.13;;;25.03;;
1380;SDS011;684;48.342;10.096;2023-03-04T11:23:23;32.67;;;24.33;;
1380;SDS011;684;48.342;10.096;2023-03-04T11:26:00;31.77;;;23.27;;
1380;SDS011;684;48.342;10.096;2023-03-04T11:28:31;32.10;;;22.60;;
1380;SDS011;684;48.342;10.096;2023-03-04T11:31:05;31.70;;;23.83;;
1380;SDS011;684;48.342;10.096;2023-03-04T11:33:39;33.03;;;24.63;;
1380;SDS011;684;48.342;10.096;2023-03-04T11:39:00;31.43;;;23.27;;
1380;SDS011;684;48.342;10.096;2023-03-04T11:41:29;29.90;;;22.53;;
1380;SDS011;684;48.342;10.096;2023-03-04T11:44:00;34.17;;;22.97;;
1380;SDS011;684;48.342;10.096;2023-03-04T11:52:34;31.33;;;22.77;;
1380;SDS011;684;48.342;10.096;2023-03-04T11:55:24;27.90;;;21.07;;
1380;SDS011;684;48.342;10.096;2023-03-04T11:58:00;30.27;;;22.43;;
1380;SDS011;684;48.342;10.096;2023-03-04T12:00:36;33.83;;;22.57;;
1380;SDS011;684;48.342;10.096;2023-03-04T12:03:21;28.80;;;21.60;;
1380;SDS011;684;48.342;10.096;2023-03-04T12:06:09;29.67;;;21.90;;
1380;SDS011;684;48.342;10.096;2023-03-04T12:08:47;31.47;;;22.97;;
1380;SDS011;684;48.342;10.096;2023-03-04T12:11:28;33.37;;;22.37;;
1380;SDS011;684;48.342;10.096;2023-03-04T12:14:10;35.10;;;23.30;;
1380;SDS011;684;48.342;10.096;2023-03-04T12:19:40;33.67;;;24.10;;
1380;SDS011;684;48.342;10.096;2023-03-04T12:22:19;31.77;;;21.53;;
1380;SDS011;684;48.342;10.096;2023-03-04T12:25:07;30.30;;;21.00;;
1380;SDS011;684;48.342;10.096;2023-03-04T12:27:57;29.30;;;21.90;;
1380;SDS011;684;48.342;10.096;2023-03-04T12:30:39;31.10;;;21.33;;
1380;SDS011;684;48.342;10.096;2023-03-04T12:33:17;31.33;;;22.23;;
1380;SDS011;684;48.342;10.096;2023-03-04T12:35:55;34.97;;;21.80;;
1380;SDS011;684;48.342;10.096;2023-03-04T12:38:34;34.17;;;23.30;;
1380;SDS011;684;48.342;10.096;2023-03-04T12:41:19;33.97;;;23.00;;
1380;SDS011;684;48.342;10.096;2023-03-04T12:43:56;35.47;;;22.50;;
1380;SDS011;684;48.342;10.096;2023-03-04T12:46:31;32.70;;;22.70;;
1380;SDS011;684;48.342;10.096;2023-03-04T12:52:02;33.97;;;22.03;;
1380;SDS011;684;48.342;10.096;2023-03-04T12:54:36;36.10;;;23.30;;
1380;SDS011;684;48.342;10.096;2023-03-04T12:57:16;37.20;;;24.30;;
1380;SDS011;684;48.342;10.096;2023-03-04T12:59:48;33.07;;;22.23;;
1380;SDS011;684;48.342;10.096;2023-03-04T13:02:26;33.90;;;23.07;;
1380;SDS011;684;48.342;10.096;2023-03-04T13:05:02;29.63;;;20.70;;
1380;SDS011;684;48.342;10.096;2023-03-04T13:07:44;30.17;;;18.07;;
1380;SDS011;684;48.342;10.096;2023-03-04T13:10:19;29.60;;;18.97;;
1380;SDS011;684;48.342;10.096;2023-03-04T13:12:50;27.50;;;17.37;;
1380;SDS011;684;48.342;10.096;2023-03-04T13:15:29;29.43;;;18.63;;
1380;SDS011;684;48.342;10.096;2023-03-04T13:17:59;31.00;;;18.80;;
1380;SDS011;684;48.342;10.096;2023-03-04T13:20:32;26.57;;;18.60;;
1380;SDS011;684;48.342;10.096;2023-03-04T13:23:02;26.90;;;17.03;;
1380;SDS011;684;48.342;10.096;2023-03-04T13:25:45;25.20;;;15.97;;
1380;SDS011;684;48.342;10.096;2023-03-04T13:28:15;27.07;;;17.07;;
1380;SDS011;684;48.342;10.096;2023-03-04T13:33:52;24.97;;;15.00;;
1380;SDS011;684;48.342;10.096;2023-03-04T13:36:25;27.80;;;16.33;;
1380;SDS011;684;48.342;10.096;2023-03-04T13:39:00;25.97;;;15.23;;
1380;SDS011;684;48.342;10.096;2023-03-04T13:41:31;27.37;;;15.43;;
1380;SDS011;684;48.342;10.096;2023-03-04T13:47:06;27.63;;;16.90;;
1380;SDS011;684;48.342;10.096;2023-03-04T13:49:35;29.47;;;16.93;;
1380;SDS011;684;48.342;10.096;2023-03-04T13:57:57;27.07;;;15.43;;
1380;SDS011;684;48.342;10.096;2023-03-04T14:00:24;29.30;;;15.93;;
1380;SDS011;684;48.342;10.096;2023-03-04T14:02:53;25.97;;;17.03;;
1380;SDS011;684;48.342;10.096;2023-03-04T14:05:20;27.27;;;17.10;;
1380;SDS011;684;48.342;10.096;2023-03-04T14:07:47;30.17;;;17.50;;
1380;SDS011;684;48.342;10.096;2023-03-04T14:10:21;29.40;;;17.33;;
1380;SDS011;684;48.342;10.096;2023-03-04T14:12:50;28.23;;;17.37;;
1380;SDS011;684;48.342;10.096;2023-03-04T14:15:21;31.83;;;18.50;;
1380;SDS011;684;48.342;10.096;2023-03-04T14:17:52;33.63;;;21.10;;
1380;SDS011;684;48.342;10.096;2023-03-04T14:20:23;29.47;;;18.17;;
1380;SDS011;684;48.342;10.096;2023-03-04T14:22:51;32.77;;;17.40;;
1380;SDS011;684;48.342;10.096;2023-03-04T14:25:20;31.53;;;19.83;;
1380;SDS011;684;48.342;10.096;2023-03-04T14:27:48;34.47;;;20.57;;
1380;SDS011;684;48.342;10.096;2023-03-04T14:30:27;32.60;;;20.20;;
1380;SDS011;684;48.342;10.096;2023-03-04T14:32:57;30.03;;;18.80;;
1380;SDS011;684;48.342;10.096;2023-03-04T14:35:25;28.83;;;18.93;;
1380;SDS011;684;48.342;10.096;2023-03-04T14:37:55;28.77;;;18.73;;
1380;SDS011;684;48.342;10.096;2023-03-04T14:40:26;29.73;;;18.23;;
1380;SDS011;684;48.342;10.096;2023-03-04T14:42:57;27.20;;;18.43;;
1380;SDS011;684;48.342;10.096;2023-03-04T14:45:29;29.43;;;18.50;;
1380;SDS011;684;48.342;10.096;2023-03-04T14:47:58;29.10;;;18.80;;
1380;SDS011;684;48.342;10.096;2023-03-04T14:50:30;28.30;;;17.80;;
1380;SDS011;684;48.342;10.096;2023-03-04T14:53:08;27.87;;;18.67;;
1380;SDS011;684;48.342;10.096;2023-03-04T14:55:53;31.17;;;19.57;;
1380;SDS011;684;48.342;10.096;2023-03-04T14:58:22;28.97;;;18.60;;
1380;SDS011;684;48.342;10.096;2023-03-04T15:01:01;27.70;;;18.03;;
1380;SDS011;684;48.342;10.096;2023-03-04T15:03:40;28.03;;;17.70;;
1380;SDS011;684;48.342;10.096;2023-03-04T15:06:14;26.83;;;16.60;;
1380;SDS011;684;48.342;10.096;2023-03-04T15:08:43;30.43;;;19.00;;
1380;SDS011;684;48.342;10.096;2023-03-04T15:11:13;33.60;;;18.90;;
1380;SDS011;684;48.342;10.096;2023-03-04T15:13:47;31.73;;;18.77;;
1380;SDS011;684;48.342;10.096;2023-03-04T15:16:16;40.93;;;21.77;;
1380;SDS011;684;48.342;10.096;2023-03-04T15:18:55;49.30;;;26.43;;
1380;SDS011;684;48.342;10.096;2023-03-04T15:21:27;36.17;;;21.23;;
1380;SDS011;684;48.342;10.096;2023-03-04T15:23:56;33.97;;;20.70;;
1380;SDS011;684;48.342;10.096;2023-03-04T15:26:24;37.90;;;21.37;;
1380;SDS011;684;48.342;10.096;2023-03-04T15:28:51;31.90;;;20.90;;
1380;SDS011;684;48.342;10.096;2023-03-04T15:31:19;30.30;;;18.30;;
1380;SDS011;684;48.342;10.096;2023-03-04T15:33:48;29.57;;;18.60;;